sensor_id;sensor_type;location;lat;lon;timestamp;P1;durP1;ratioP1;P2;durP2;ratioP2
51384;SDS011;37478;55.682;37.462;2023-03-15T00:00:40;4.60;;;2.63;;
51384;SDS011;37478;55.682;37.462;2023-03-15T00:03:06;4.88;;;3.40;;
51384;SDS011;37478;55.682;37.462;2023-03-15T00:05:32;4.63;;;3.00;;
51384;SDS011;37478;55.682;37.462;2023-03-15T00:07:57;6.35;;;3.25;;
51384;SDS011;37478;55.682;37.462;2023-03-15T00:10:23;5.22;;;3.13;;
51384;SDS011;37478;55.682;37.462;2023-03-15T00:12:48;7.65;;;3.15;;
51384;SDS011;37478;55.682;37.462;2023-03-15T00:15:13;5.28;;;3.25;;
51384;SDS011;37478;55.682;37.462;2023-03-15T00:17:39;6.40;;;4.18;;
51384;SDS011;37478;55.682;37.462;2023-03-15T00:20:05;4.55;;;2.58;;
51384;SDS011;37478;55.682;37.462;2023-03-15T00:22:30;7.10;;;2.75;;
51384;SDS011;37478;55.682;37.462;2023-03-15T00:24:55;6.00;;;3.20;;
51384;SDS011;37478;55.682;37.462;2023-03-15T00:27:21;4.60;;;2.47;;
51384;SDS011;37478;55.682;37.462;2023-03-15T00:29:46;4.20;;;3.35;;
51384;SDS011;37478;55.682;37.462;2023-03-15T00:32:11;4.30;;;3.10;;
51384;SDS011;37478;55.682;37.462;2023-03-15T00:34:37;5.35;;;3.15;;
51384;SDS011;37478;55.682;37.462;2023-03-15T00:37:02;5.55;;;2.72;;
51384;SDS011;37478;55.682;37.462;2023-03-15T00:39:27;5.43;;;3.30;;
51384;SDS011;37478;55.682;37.462;2023-03-15T00:41:53;6.40;;;4.05;;
51384;SDS011;37478;55.682;37.462;2023-03-15T00:44:21;6.50;;;3.38;;
51384;SDS011;37478;55.682;37.462;2023-03-15T00:46:46;4.53;;;2.95;;
51384;SDS011;37478;55.682;37.462;2023-03-15T00:49:12;5.63;;;3.42;;
51384;SDS011;37478;55.682;37.462;2023-03-15T00:51:37;8.05;;;3.65;;
51384;SDS011;37478;55.682;37.462;2023-03-15T00:54:02;8.77;;;3.28;;
51384;SDS011;37478;55.682;37.462;2023-03-15T00:56:28;7.13;;;3.47;;
51384;SDS011;37478;55.682;37.462;2023-03-15T00:58:54;7.00;;;3.40;;
51384;SDS011;37478;55.682;37.462;2023-03-15T01:01:21;5.43;;;3.20;;
51384;SDS011;37478;55.682;37.462;2023-03-15T01:03:46;5.13;;;3.08;;
51384;SDS011;37478;55.682;37.462;2023-03-15T01:06:13;4.63;;;3.13;;
51384;SDS011;37478;55.682;37.462;2023-03-15T01:08:38;7.20;;;2.80;;
51384;SDS011;37478;55.682;37.462;2023-03-15T01:11:06;6.82;;;3.30;;
51384;SDS011;37478;55.682;37.462;2023-03-15T01:13:32;7.30;;;3.85;;
51384;SDS011;37478;55.682;37.462;2023-03-15T01:15:58;8.63;;;3.83;;
51384;SDS011;37478;55.682;37.462;2023-03-15T01:18:23;6.30;;;3.70;;
51384;SDS011;37478;55.682;37.462;2023-03-15T01:20:48;5.97;;;3.55;;
51384;SDS011;37478;55.682;37.462;2023-03-15T01:23:14;5.35;;;3.72;;
51384;SDS011;37478;55.682;37.462;2023-03-15T01:25:39;5.43;;;3.47;;
51384;SDS011;37478;55.682;37.462;2023-03-15T01:28:04;4.78;;;3.08;;
51384;SDS011;37478;55.682;37.462;2023-03-15T01:30:30;5.82;;;4.28;;
51384;SDS011;37478;55.682;37.462;2023-03-15T01:32:55;6.05;;;3.75;;
51384;SDS011;37478;55.682;37.462;2023-03-15T01:35:20;6.30;;;3.70;;
51384;SDS011;37478;55.682;37.462;2023-03-15T01:37:48;9.98;;;3.58;;
51384;SDS011;37478;55.682;37.462;2023-03-15T01:40:13;4.90;;;3.47;;
51384;SDS011;37478;55.682;37.462;2023-03-15T01:48:06;5.10;;;3.30;;
51384;SDS011;37478;55.682;37.462;2023-03-15T01:50:32;5.43;;;3.35;;
51384;SDS011;37478;55.682;37.462;2023-03-15T01:52:57;7.72;;;3.63;;
51384;SDS011;37478;55.682;37.462;2023-03-15T01:55:22;6.45;;;3.88;;
51384;SDS011;37478;55.682;37.462;2023-03-15T01:57:49;8.00;;;4.10;;
51384;SDS011;37478;55.682;37.462;2023-03-15T02:00:16;5.25;;;3.28;;
51384;SDS011;37478;55.682;37.462;2023-03-15T02:02:44;4.47;;;3.30;;
51384;SDS011;37478;55.682;37.462;2023-03-15T02:05:11;6.13;;;3.13;;
51384;SDS011;37478;55.682;37.462;2023-03-15T02:07:38;5.57;;;3.03;;
51384;SDS011;37478;55.682;37.462;2023-03-15T02:10:15;8.73;;;3.38;;
51384;SDS011;37478;55.682;37.462;2023-03-15T02:12:44;5.18;;;3.60;;
51384;SDS011;37478;55.682;37.462;2023-03-15T02:15:10;7.00;;;3.60;;
51384;SDS011;37478;55.682;37.462;2023-03-15T02:17:41;5.43;;;3.70;;
51384;SDS011;37478;55.682;37.462;2023-03-15T02:23:11;6.68;;;3.08;;
51384;SDS011;37478;55.682;37.462;2023-03-15T02:28:06;4.93;;;3.38;;
51384;SDS011;37478;55.682;37.462;2023-03-15T02:30:31;5.18;;;3.65;;
51384;SDS011;37478;55.682;37.462;2023-03-15T02:32:57;4.95;;;3.38;;
51384;SDS011;37478;55.682;37.462;2023-03-15T02:35:27;5.38;;;3.40;;
51384;SDS011;37478;55.682;37.462;2023-03-15T02:37:53;6.63;;;4.03;;
51384;SDS011;37478;55.682;37.462;2023-03-15T02:40:19;4.93;;;3.28;;
51384;SDS011;37478;55.682;37.462;2023-03-15T02:42:45;4.00;;;3.17;;
51384;SDS011;37478;55.682;37.462;2023-03-15T02:45:11;5.80;;;3.70;;
51384;SDS011;37478;55.682;37.462;2023-03-15T02:47:36;4.90;;;3.22;;
51384;SDS011;37478;55.682;37.462;2023-03-15T02:50:02;8.27;;;3.53;;
51384;SDS011;37478;55.682;37.462;2023-03-15T02:52:27;5.45;;;3.40;;
51384;SDS011;37478;55.682;37.462;2023-03-15T02:54:53;6.45;;;3.47;;
51384;SDS011;37478;55.682;37.462;2023-03-15T02:57:18;7.15;;;3.75;;
51384;SDS011;37478;55.682;37.462;2023-03-15T02:59:43;7.78;;;3.60;;
51384;SDS011;37478;55.682;37.462;2023-03-15T03:02:10;8.68;;;4.30;;
51384;SDS011;37478;55.682;37.462;2023-03-15T03:04:36;5.55;;;3.53;;
51384;SDS011;37478;55.682;37.462;2023-03-15T03:07:01;6.05;;;3.55;;
51384;SDS011;37478;55.682;37.462;2023-03-15T03:09:26;5.47;;;3.50;;
51384;SDS011;37478;55.682;37.462;2023-03-15T03:11:52;7.55;;;3.30;;
51384;SDS011;37478;55.682;37.462;2023-03-15T03:14:17;5.00;;;3.25;;
51384;SDS011;37478;55.682;37.462;2023-03-15T03:16:42;6.20;;;3.60;;
51384;SDS011;37478;55.682;37.462;2023-03-15T03:19:09;6.55;;;3.58;;
51384;SDS011;37478;55.682;37.462;2023-03-15T03:21:36;7.82;;;3.55;;
51384;SDS011;37478;55.682;37.462;2023-03-15T03:24:01;6.35;;;3.67;;
51384;SDS011;37478;55.682;37.462;2023-03-15T03:26:27;8.32;;;4.38;;
51384;SDS011;37478;55.682;37.462;2023-03-15T03:28:52;8.32;;;5.30;;
51384;SDS011;37478;55.682;37.462;2023-03-15T03:31:22;7.22;;;4.82;;
51384;SDS011;37478;55.682;37.462;2023-03-15T03:33:48;7.22;;;4.07;;
51384;SDS011;37478;55.682;37.462;2023-03-15T03:36:13;6.53;;;4.28;;
51384;SDS011;37478;55.682;37.462;2023-03-15T03:38:42;5.85;;;4.07;;
51384;SDS011;37478;55.682;37.462;2023-03-15T03:41:09;7.22;;;3.83;;
51384;SDS011;37478;55.682;37.462;2023-03-15T03:43:34;6.75;;;3.90;;
51384;SDS011;37478;55.682;37.462;2023-03-15T03:46:00;6.03;;;3.53;;
51384;SDS011;37478;55.682;37.462;2023-03-15T03:48:25;10.20;;;4.15;;
51384;SDS011;37478;55.682;37.462;2023-03-15T03:50:50;8.25;;;3.75;;
51384;SDS011;37478;55.682;37.462;2023-03-15T03:53:16;6.68;;;3.50;;
51384;SDS011;37478;55.682;37.462;2023-03-15T03:55:41;6.43;;;3.65;;
51384;SDS011;37478;55.682;37.462;2023-03-15T03:58:07;5.15;;;3.50;;
51384;SDS011;37478;55.682;37.462;2023-03-15T04:00:32;11.65;;;3.75;;
51384;SDS011;37478;55.682;37.462;2023-03-15T04:02:57;4.70;;;3.50;;
51384;SDS011;37478;55.682;37.462;2023-03-15T04:05:23;6.38;;;3.38;;
51384;SDS011;37478;55.682;37.462;2023-03-15T04:07:48;6.20;;;3.10;;
51384;SDS011;37478;55.682;37.462;2023-03-15T04:10:13;7.05;;;4.13;;
51384;SDS011;37478;55.682;37.462;2023-03-15T04:12:40;7.55;;;3.60;;
51384;SDS011;37478;55.682;37.462;2023-03-15T04:15:05;7.40;;;4.03;;
51384;SDS011;37478;55.682;37.462;2023-03-15T04:17:31;6.57;;;4.03;;
51384;SDS011;37478;55.682;37.462;2023-03-15T04:19:56;8.18;;;4.05;;
51384;SDS011;37478;55.682;37.462;2023-03-15T04:22:23;6.68;;;3.35;;
51384;SDS011;37478;55.682;37.462;2023-03-15T04:24:48;6.47;;;3.95;;
51384;SDS011;37478;55.682;37.462;2023-03-15T04:27:14;5.80;;;3.28;;
51384;SDS011;37478;55.682;37.462;2023-03-15T04:29:40;8.35;;;3.97;;
51384;SDS011;37478;55.682;37.462;2023-03-15T04:32:06;5.07;;;3.33;;
51384;SDS011;37478;55.682;37.462;2023-03-15T04:34:31;11.23;;;5.90;;
51384;SDS011;37478;55.682;37.462;2023-03-15T04:36:57;9.68;;;4.03;;
51384;SDS011;37478;55.682;37.462;2023-03-15T04:39:22;7.22;;;3.63;;
51384;SDS011;37478;55.682;37.462;2023-03-15T04:41:47;10.50;;;5.03;;
51384;SDS011;37478;55.682;37.462;2023-03-15T04:44:13;6.25;;;3.85;;
51384;SDS011;37478;55.682;37.462;2023-03-15T04:46:42;7.25;;;4.50;;
51384;SDS011;37478;55.682;37.462;2023-03-15T04:49:07;8.75;;;3.58;;
51384;SDS011;37478;55.682;37.462;2023-03-15T04:51:32;8.50;;;4.28;;
51384;SDS011;37478;55.682;37.462;2023-03-15T04:53:58;8.85;;;4.38;;
51384;SDS011;37478;55.682;37.462;2023-03-15T04:56:23;8.10;;;3.83;;
51384;SDS011;37478;55.682;37.462;2023-03-15T04:58:49;7.72;;;3.88;;
51384;SDS011;37478;55.682;37.462;2023-03-15T05:01:14;7.72;;;4.28;;
51384;SDS011;37478;55.682;37.462;2023-03-15T05:03:39;4.43;;;3.40;;
51384;SDS011;37478;55.682;37.462;2023-03-15T05:06:05;7.30;;;4.25;;
51384;SDS011;37478;55.682;37.462;2023-03-15T05:08:35;8.45;;;3.85;;
51384;SDS011;37478;55.682;37.462;2023-03-15T05:11:03;6.90;;;4.45;;
51384;SDS011;37478;55.682;37.462;2023-03-15T05:13:29;7.55;;;3.35;;
51384;SDS011;37478;55.682;37.462;2023-03-15T05:15:54;7.22;;;4.65;;
51384;SDS011;37478;55.682;37.462;2023-03-15T05:18:20;5.28;;;4.45;;
51384;SDS011;37478;55.682;37.462;2023-03-15T05:20:46;10.02;;;4.38;;
51384;SDS011;37478;55.682;37.462;2023-03-15T05:23:11;8.02;;;4.60;;
51384;SDS011;37478;55.682;37.462;2023-03-15T05:25:37;8.05;;;5.03;;
51384;SDS011;37478;55.682;37.462;2023-03-15T05:28:03;8.40;;;4.32;;
51384;SDS011;37478;55.682;37.462;2023-03-15T05:30:29;7.45;;;4.53;;
51384;SDS011;37478;55.682;37.462;2023-03-15T05:32:55;13.13;;;4.47;;
51384;SDS011;37478;55.682;37.462;2023-03-15T05:35:20;6.07;;;4.15;;
51384;SDS011;37478;55.682;37.462;2023-03-15T05:37:48;11.45;;;4.90;;
51384;SDS011;37478;55.682;37.462;2023-03-15T05:40:13;7.90;;;4.78;;
51384;SDS011;37478;55.682;37.462;2023-03-15T05:42:39;6.65;;;3.90;;
51384;SDS011;37478;55.682;37.462;2023-03-15T05:45:05;6.28;;;4.40;;
51384;SDS011;37478;55.682;37.462;2023-03-15T05:47:31;7.85;;;4.53;;
51384;SDS011;37478;55.682;37.462;2023-03-15T05:49:56;7.40;;;4.57;;
51384;SDS011;37478;55.682;37.462;2023-03-15T05:52:22;10.20;;;4.65;;
51384;SDS011;37478;55.682;37.462;2023-03-15T05:54:48;8.70;;;4.70;;
51384;SDS011;37478;55.682;37.462;2023-03-15T05:57:13;7.72;;;4.50;;
51384;SDS011;37478;55.682;37.462;2023-03-15T05:59:39;9.20;;;4.60;;
51384;SDS011;37478;55.682;37.462;2023-03-15T06:02:04;10.20;;;4.10;;
51384;SDS011;37478;55.682;37.462;2023-03-15T06:04:29;8.75;;;4.55;;
51384;SDS011;37478;55.682;37.462;2023-03-15T06:06:55;7.20;;;4.50;;
51384;SDS011;37478;55.682;37.462;2023-03-15T06:09:20;5.45;;;3.72;;
51384;SDS011;37478;55.682;37.462;2023-03-15T06:11:45;12.07;;;4.93;;
51384;SDS011;37478;55.682;37.462;2023-03-15T06:14:11;8.70;;;4.72;;
51384;SDS011;37478;55.682;37.462;2023-03-15T06:16:36;7.13;;;4.40;;
51384;SDS011;37478;55.682;37.462;2023-03-15T06:19:01;9.30;;;4.65;;
51384;SDS011;37478;55.682;37.462;2023-03-15T06:21:27;7.57;;;4.18;;
51384;SDS011;37478;55.682;37.462;2023-03-15T06:23:52;8.20;;;4.72;;
51384;SDS011;37478;55.682;37.462;2023-03-15T06:26:18;8.18;;;5.07;;
51384;SDS011;37478;55.682;37.462;2023-03-15T06:28:44;8.90;;;4.40;;
51384;SDS011;37478;55.682;37.462;2023-03-15T06:31:10;9.18;;;4.20;;
51384;SDS011;37478;55.682;37.462;2023-03-15T06:33:35;9.60;;;4.43;;
51384;SDS011;37478;55.682;37.462;2023-03-15T06:36:00;8.27;;;4.70;;
51384;SDS011;37478;55.682;37.462;2023-03-15T06:38:26;8.23;;;4.30;;
51384;SDS011;37478;55.682;37.462;2023-03-15T06:40:51;7.25;;;4.40;;
51384;SDS011;37478;55.682;37.462;2023-03-15T06:43:16;9.40;;;4.53;;
51384;SDS011;37478;55.682;37.462;2023-03-15T06:45:46;7.40;;;4.80;;
51384;SDS011;37478;55.682;37.462;2023-03-15T06:48:12;8.40;;;4.65;;
51384;SDS011;37478;55.682;37.462;2023-03-15T06:50:37;9.18;;;4.53;;
51384;SDS011;37478;55.682;37.462;2023-03-15T06:53:03;11.13;;;5.18;;
51384;SDS011;37478;55.682;37.462;2023-03-15T06:55:28;8.25;;;4.65;;
51384;SDS011;37478;55.682;37.462;2023-03-15T06:57:53;9.63;;;5.05;;
51384;SDS011;37478;55.682;37.462;2023-03-15T07:00:19;9.40;;;5.55;;
51384;SDS011;37478;55.682;37.462;2023-03-15T07:02:44;9.10;;;4.72;;
51384;SDS011;37478;55.682;37.462;2023-03-15T07:05:10;9.07;;;4.85;;
51384;SDS011;37478;55.682;37.462;2023-03-15T07:07:35;11.65;;;5.65;;
51384;SDS011;37478;55.682;37.462;2023-03-15T07:10:00;9.65;;;4.57;;
51384;SDS011;37478;55.682;37.462;2023-03-15T07:12:26;8.63;;;4.65;;
51384;SDS011;37478;55.682;37.462;2023-03-15T07:14:51;7.03;;;4.25;;
51384;SDS011;37478;55.682;37.462;2023-03-15T07:17:16;8.68;;;4.90;;
51384;SDS011;37478;55.682;37.462;2023-03-15T07:19:42;9.95;;;5.72;;
51384;SDS011;37478;55.682;37.462;2023-03-15T07:22:07;9.90;;;4.90;;
51384;SDS011;37478;55.682;37.462;2023-03-15T07:24:32;8.15;;;5.25;;
51384;SDS011;37478;55.682;37.462;2023-03-15T07:26:58;10.20;;;5.50;;
51384;SDS011;37478;55.682;37.462;2023-03-15T07:29:23;8.77;;;5.05;;
51384;SDS011;37478;55.682;37.462;2023-03-15T07:31:49;8.40;;;4.30;;
51384;SDS011;37478;55.682;37.462;2023-03-15T07:34:14;7.55;;;4.72;;
51384;SDS011;37478;55.682;37.462;2023-03-15T07:36:39;8.52;;;5.15;;
51384;SDS011;37478;55.682;37.462;2023-03-15T07:39:05;9.93;;;5.43;;
51384;SDS011;37478;55.682;37.462;2023-03-15T07:41:30;7.75;;;4.57;;
51384;SDS011;37478;55.682;37.462;2023-03-15T07:43:56;9.88;;;5.40;;
51384;SDS011;37478;55.682;37.462;2023-03-15T07:46:21;11.68;;;5.63;;
51384;SDS011;37478;55.682;37.462;2023-03-15T07:48:46;7.85;;;5.18;;
51384;SDS011;37478;55.682;37.462;2023-03-15T07:51:11;7.22;;;4.57;;
51384;SDS011;37478;55.682;37.462;2023-03-15T07:53:37;10.48;;;5.53;;
51384;SDS011;37478;55.682;37.462;2023-03-15T07:56:02;8.80;;;5.15;;
51384;SDS011;37478;55.682;37.462;2023-03-15T07:58:28;12.32;;;5.78;;
51384;SDS011;37478;55.682;37.462;2023-03-15T08:00:54;10.20;;;6.72;;
51384;SDS011;37478;55.682;37.462;2023-03-15T08:03:20;10.32;;;5.32;;
51384;SDS011;37478;55.682;37.462;2023-03-15T08:05:45;10.82;;;5.10;;
51384;SDS011;37478;55.682;37.462;2023-03-15T08:08:10;9.48;;;4.90;;
51384;SDS011;37478;55.682;37.462;2023-03-15T08:10:36;9.10;;;5.30;;
51384;SDS011;37478;55.682;37.462;2023-03-15T08:13:01;9.45;;;5.35;;
51384;SDS011;37478;55.682;37.462;2023-03-15T08:15:26;12.05;;;5.60;;
51384;SDS011;37478;55.682;37.462;2023-03-15T08:17:52;10.98;;;6.43;;
51384;SDS011;37478;55.682;37.462;2023-03-15T08:20:17;10.85;;;5.47;;
51384;SDS011;37478;55.682;37.462;2023-03-15T08:22:46;11.82;;;5.93;;
51384;SDS011;37478;55.682;37.462;2023-03-15T08:25:12;16.42;;;6.28;;
51384;SDS011;37478;55.682;37.462;2023-03-15T08:27:38;8.50;;;5.35;;
51384;SDS011;37478;55.682;37.462;2023-03-15T08:30:04;11.50;;;5.95;;
51384;SDS011;37478;55.682;37.462;2023-03-15T08:32:32;8.38;;;5.38;;
51384;SDS011;37478;55.682;37.462;2023-03-15T08:34:58;20.58;;;6.55;;
51384;SDS011;37478;55.682;37.462;2023-03-15T08:37:23;9.70;;;5.78;;
51384;SDS011;37478;55.682;37.462;2023-03-15T08:39:48;13.23;;;5.13;;
51384;SDS011;37478;55.682;37.462;2023-03-15T08:42:14;12.50;;;6.53;;
51384;SDS011;37478;55.682;37.462;2023-03-15T08:44:39;11.02;;;5.45;;
51384;SDS011;37478;55.682;37.462;2023-03-15T08:47:04;11.40;;;5.80;;
51384;SDS011;37478;55.682;37.462;2023-03-15T08:49:30;9.52;;;5.90;;
51384;SDS011;37478;55.682;37.462;2023-03-15T08:51:55;11.48;;;5.65;;
51384;SDS011;37478;55.682;37.462;2023-03-15T08:54:20;13.38;;;6.47;;
51384;SDS011;37478;55.682;37.462;2023-03-15T08:56:47;9.60;;;5.90;;
51384;SDS011;37478;55.682;37.462;2023-03-15T08:59:12;9.90;;;6.50;;
51384;SDS011;37478;55.682;37.462;2023-03-15T09:01:39;8.73;;;5.97;;
51384;SDS011;37478;55.682;37.462;2023-03-15T09:04:04;12.68;;;6.53;;
51384;SDS011;37478;55.682;37.462;2023-03-15T09:06:30;9.85;;;6.57;;
51384;SDS011;37478;55.682;37.462;2023-03-15T09:08:55;11.65;;;7.47;;
51384;SDS011;37478;55.682;37.462;2023-03-15T09:11:21;8.52;;;6.70;;
51384;SDS011;37478;55.682;37.462;2023-03-15T09:13:46;10.27;;;6.65;;
51384;SDS011;37478;55.682;37.462;2023-03-15T09:16:12;12.02;;;6.35;;
51384;SDS011;37478;55.682;37.462;2023-03-15T09:18:37;10.45;;;5.50;;
51384;SDS011;37478;55.682;37.462;2023-03-15T09:21:04;13.70;;;6.88;;
51384;SDS011;37478;55.682;37.462;2023-03-15T09:23:30;9.27;;;5.63;;
51384;SDS011;37478;55.682;37.462;2023-03-15T09:25:55;11.52;;;6.50;;
51384;SDS011;37478;55.682;37.462;2023-03-15T09:28:20;14.32;;;6.15;;
51384;SDS011;37478;55.682;37.462;2023-03-15T09:30:46;7.55;;;5.70;;
51384;SDS011;37478;55.682;37.462;2023-03-15T09:33:11;10.75;;;7.57;;
51384;SDS011;37478;55.682;37.462;2023-03-15T09:35:38;10.63;;;5.78;;
51384;SDS011;37478;55.682;37.462;2023-03-15T09:38:04;10.77;;;5.57;;
51384;SDS011;37478;55.682;37.462;2023-03-15T09:40:31;15.38;;;6.72;;
51384;SDS011;37478;55.682;37.462;2023-03-15T09:50:20;12.25;;;6.43;;
51384;SDS011;37478;55.682;37.462;2023-03-15T09:53:20;10.07;;;7.10;;
51384;SDS011;37478;55.682;37.462;2023-03-15T09:55:38;9.07;;;5.78;;
51384;SDS011;37478;55.682;37.462;2023-03-15T09:58:05;8.93;;;5.75;;
51384;SDS011;37478;55.682;37.462;2023-03-15T10:03:02;12.13;;;6.32;;
51384;SDS011;37478;55.682;37.462;2023-03-15T10:05:34;12.85;;;6.45;;
51384;SDS011;37478;55.682;37.462;2023-03-15T10:07:59;12.48;;;6.70;;
51384;SDS011;37478;55.682;37.462;2023-03-15T10:10:27;13.40;;;7.45;;
51384;SDS011;37478;55.682;37.462;2023-03-15T10:12:57;12.20;;;7.20;;
51384;SDS011;37478;55.682;37.462;2023-03-15T10:18:05;12.88;;;7.07;;
51384;SDS011;37478;55.682;37.462;2023-03-15T10:20:39;12.38;;;7.15;;
51384;SDS011;37478;55.682;37.462;2023-03-15T10:23:09;8.98;;;6.15;;
51384;SDS011;37478;55.682;37.462;2023-03-15T10:25:35;10.55;;;6.00;;
51384;SDS011;37478;55.682;37.462;2023-03-15T10:28:08;13.60;;;6.90;;
51384;SDS011;37478;55.682;37.462;2023-03-15T10:30:35;11.27;;;6.38;;
51384;SDS011;37478;55.682;37.462;2023-03-15T10:33:08;12.68;;;6.90;;
51384;SDS011;37478;55.682;37.462;2023-03-15T10:35:35;8.85;;;5.72;;
51384;SDS011;37478;55.682;37.462;2023-03-15T10:38:01;10.50;;;6.03;;
51384;SDS011;37478;55.682;37.462;2023-03-15T10:40:40;10.60;;;6.25;;
51384;SDS011;37478;55.682;37.462;2023-03-15T10:43:15;7.38;;;5.10;;
51384;SDS011;37478;55.682;37.462;2023-03-15T10:45:41;7.85;;;5.72;;
51384;SDS011;37478;55.682;37.462;2023-03-15T10:48:06;8.18;;;5.05;;
51384;SDS011;37478;55.682;37.462;2023-03-15T10:50:32;8.02;;;6.07;;
51384;SDS011;37478;55.682;37.462;2023-03-15T10:52:58;9.13;;;5.88;;
51384;SDS011;37478;55.682;37.462;2023-03-15T10:55:27;9.25;;;4.75;;
51384;SDS011;37478;55.682;37.462;2023-03-15T10:57:54;13.45;;;6.00;;
51384;SDS011;37478;55.682;37.462;2023-03-15T11:02:51;8.30;;;6.30;;
51384;SDS011;37478;55.682;37.462;2023-03-15T11:05:17;9.35;;;6.25;;
51384;SDS011;37478;55.682;37.462;2023-03-15T11:08:17;16.23;;;6.80;;
51384;SDS011;37478;55.682;37.462;2023-03-15T11:10:34;10.32;;;5.43;;
51384;SDS011;37478;55.682;37.462;2023-03-15T11:13:19;9.10;;;5.95;;
51384;SDS011;37478;55.682;37.462;2023-03-15T11:15:47;8.75;;;6.07;;
51384;SDS011;37478;55.682;37.462;2023-03-15T11:18:16;9.98;;;5.05;;
51384;SDS011;37478;55.682;37.462;2023-03-15T11:20:42;12.48;;;6.07;;
51384;SDS011;37478;55.682;37.462;2023-03-15T11:23:15;8.50;;;5.85;;
51384;SDS011;37478;55.682;37.462;2023-03-15T11:25:42;11.35;;;5.55;;
51384;SDS011;37478;55.682;37.462;2023-03-15T11:28:10;11.38;;;6.07;;
51384;SDS011;37478;55.682;37.462;2023-03-15T11:30:40;9.18;;;5.43;;
51384;SDS011;37478;55.682;37.462;2023-03-15T11:33:06;11.48;;;6.15;;
51384;SDS011;37478;55.682;37.462;2023-03-15T11:35:32;11.80;;;6.82;;
51384;SDS011;37478;55.682;37.462;2023-03-15T11:38:03;7.28;;;5.00;;
51384;SDS011;37478;55.682;37.462;2023-03-15T11:40:32;10.30;;;6.45;;
51384;SDS011;37478;55.682;37.462;2023-03-15T11:43:18;9.02;;;6.00;;
51384;SDS011;37478;55.682;37.462;2023-03-15T11:45:50;12.30;;;6.30;;
51384;SDS011;37478;55.682;37.462;2023-03-15T11:50:51;11.38;;;6.18;;
51384;SDS011;37478;55.682;37.462;2023-03-15T11:53:16;16.02;;;5.97;;
51384;SDS011;37478;55.682;37.462;2023-03-15T11:55:46;9.73;;;6.28;;
51384;SDS011;37478;55.682;37.462;2023-03-15T11:58:31;9.55;;;5.53;;
51384;SDS011;37478;55.682;37.462;2023-03-15T12:01:01;10.93;;;6.03;;
51384;SDS011;37478;55.682;37.462;2023-03-15T12:04:25;11.20;;;6.20;;
51384;SDS011;37478;55.682;37.462;2023-03-15T12:06:37;11.88;;;6.75;;
51384;SDS011;37478;55.682;37.462;2023-03-15T12:09:36;8.50;;;5.90;;
51384;SDS011;37478;55.682;37.462;2023-03-15T12:11:48;10.70;;;5.95;;
51384;SDS011;37478;55.682;37.462;2023-03-15T12:16:52;9.88;;;6.00;;
51384;SDS011;37478;55.682;37.462;2023-03-15T12:19:21;10.93;;;6.28;;
51384;SDS011;37478;55.682;37.462;2023-03-15T12:21:52;10.52;;;6.75;;
51384;SDS011;37478;55.682;37.462;2023-03-15T12:26:49;13.40;;;6.47;;
51384;SDS011;37478;55.682;37.462;2023-03-15T12:34:23;9.25;;;6.30;;
51384;SDS011;37478;55.682;37.462;2023-03-15T12:36:50;11.07;;;6.50;;
51384;SDS011;37478;55.682;37.462;2023-03-15T12:41:43;10.20;;;6.30;;
51384;SDS011;37478;55.682;37.462;2023-03-15T12:44:25;8.88;;;5.82;;
51384;SDS011;37478;55.682;37.462;2023-03-15T12:51:42;10.82;;;6.50;;
51384;SDS011;37478;55.682;37.462;2023-03-15T12:54:08;12.38;;;6.80;;
51384;SDS011;37478;55.682;37.462;2023-03-15T12:56:42;9.63;;;6.30;;
51384;SDS011;37478;55.682;37.462;2023-03-15T12:59:16;12.98;;;6.95;;
51384;SDS011;37478;55.682;37.462;2023-03-15T13:01:43;9.15;;;6.00;;
51384;SDS011;37478;55.682;37.462;2023-03-15T13:04:09;13.68;;;5.93;;
51384;SDS011;37478;55.682;37.462;2023-03-15T13:09:08;11.77;;;6.70;;
51384;SDS011;37478;55.682;37.462;2023-03-15T13:21:59;9.57;;;6.28;;
51384;SDS011;37478;55.682;37.462;2023-03-15T13:24:31;12.32;;;8.10;;
51384;SDS011;37478;55.682;37.462;2023-03-15T13:27:01;12.07;;;6.45;;
51384;SDS011;37478;55.682;37.462;2023-03-15T13:29:29;10.00;;;6.32;;
51384;SDS011;37478;55.682;37.462;2023-03-15T13:34:27;11.50;;;6.53;;
51384;SDS011;37478;55.682;37.462;2023-03-15T13:36:55;11.25;;;6.53;;
51384;SDS011;37478;55.682;37.462;2023-03-15T13:41:59;13.32;;;6.60;;
51384;SDS011;37478;55.682;37.462;2023-03-15T13:44:24;11.15;;;6.95;;
51384;SDS011;37478;55.682;37.462;2023-03-15T13:46:50;11.15;;;7.13;;
51384;SDS011;37478;55.682;37.462;2023-03-15T13:49:16;9.60;;;6.22;;
51384;SDS011;37478;55.682;37.462;2023-03-15T13:51:42;12.88;;;6.93;;
51384;SDS011;37478;55.682;37.462;2023-03-15T13:59:10;8.57;;;5.90;;
51384;SDS011;37478;55.682;37.462;2023-03-15T14:01:39;7.43;;;5.20;;
51384;SDS011;37478;55.682;37.462;2023-03-15T14:04:08;9.20;;;5.85;;
51384;SDS011;37478;55.682;37.462;2023-03-15T14:06:35;8.20;;;5.70;;
51384;SDS011;37478;55.682;37.462;2023-03-15T14:09:04;12.02;;;5.93;;
51384;SDS011;37478;55.682;37.462;2023-03-15T14:11:32;11.85;;;6.10;;
51384;SDS011;37478;55.682;37.462;2023-03-15T14:13:59;8.82;;;5.93;;
51384;SDS011;37478;55.682;37.462;2023-03-15T14:16:39;12.13;;;6.65;;
51384;SDS011;37478;55.682;37.462;2023-03-15T14:19:18;14.32;;;6.97;;
51384;SDS011;37478;55.682;37.462;2023-03-15T14:21:45;10.38;;;6.20;;
51384;SDS011;37478;55.682;37.462;2023-03-15T14:24:16;10.82;;;5.93;;
51384;SDS011;37478;55.682;37.462;2023-03-15T14:26:43;8.90;;;6.10;;
51384;SDS011;37478;55.682;37.462;2023-03-15T14:29:15;11.95;;;6.38;;
51384;SDS011;37478;55.682;37.462;2023-03-15T14:31:45;13.18;;;7.18;;
51384;SDS011;37478;55.682;37.462;2023-03-15T14:34:16;10.50;;;6.72;;
51384;SDS011;37478;55.682;37.462;2023-03-15T14:36:43;11.38;;;6.63;;
51384;SDS011;37478;55.682;37.462;2023-03-15T14:39:18;12.45;;;6.32;;
51384;SDS011;37478;55.682;37.462;2023-03-15T14:41:44;11.65;;;6.18;;
51384;SDS011;37478;55.682;37.462;2023-03-15T14:44:09;12.00;;;6.20;;
51384;SDS011;37478;55.682;37.462;2023-03-15T14:46:35;13.35;;;6.93;;
51384;SDS011;37478;55.682;37.462;2023-03-15T14:49:00;10.07;;;6.18;;
51384;SDS011;37478;55.682;37.462;2023-03-15T14:51:26;9.73;;;5.80;;
51384;SDS011;37478;55.682;37.462;2023-03-15T14:53:52;10.02;;;6.40;;
51384;SDS011;37478;55.682;37.462;2023-03-15T14:56:20;11.38;;;6.80;;
51384;SDS011;37478;55.682;37.462;2023-03-15T14:58:45;10.40;;;6.20;;
51384;SDS011;37478;55.682;37.462;2023-03-15T15:01:11;9.40;;;6.25;;
51384;SDS011;37478;55.682;37.462;2023-03-15T15:06:04;12.02;;;6.93;;
51384;SDS011;37478;55.682;37.462;2023-03-15T15:08:30;8.75;;;6.68;;
51384;SDS011;37478;55.682;37.462;2023-03-15T15:10:56;12.57;;;6.57;;
51384;SDS011;37478;55.682;37.462;2023-03-15T15:13:25;14.32;;;6.65;;
51384;SDS011;37478;55.682;37.462;2023-03-15T15:15:53;10.70;;;6.22;;
51384;SDS011;37478;55.682;37.462;2023-03-15T15:18:19;12.80;;;6.18;;
51384;SDS011;37478;55.682;37.462;2023-03-15T15:20:44;11.05;;;6.88;;
51384;SDS011;37478;55.682;37.462;2023-03-15T15:23:17;9.63;;;5.72;;
51384;SDS011;37478;55.682;37.462;2023-03-15T15:25:43;8.52;;;5.68;;
51384;SDS011;37478;55.682;37.462;2023-03-15T15:28:08;10.20;;;6.63;;
51384;SDS011;37478;55.682;37.462;2023-03-15T15:30:34;9.80;;;5.95;;
51384;SDS011;37478;55.682;37.462;2023-03-15T15:33:00;11.20;;;5.93;;
51384;SDS011;37478;55.682;37.462;2023-03-15T15:35:25;8.95;;;6.57;;
51384;SDS011;37478;55.682;37.462;2023-03-15T15:37:51;12.40;;;5.65;;
51384;SDS011;37478;55.682;37.462;2023-03-15T15:40:21;13.40;;;6.28;;